Time;durP1;ratioP1;P1;durP2;ratioP2;P2;SDS_P1;SDS_P2;PMS_P1;PMS_P2;Temp;Humidity;BMP_temperature;BMP_pressure;BME280_temperature;BME280_humidity;BME280_pressure;Samples;Min_cycle;Max_cycle;Signal;HPM_P1;HPM_P2
2023/06/20 00:00:37;;;;;;;18.73;17.13;;;;;;;22.10;56.92;100708.34;7398967;19;20019;-67
2023/06/20 00:03:06;;;;;;;19.73;16.85;;;;;;;22.05;56.72;100702.47;7398462;19;20378;-67
2023/06/20 00:05:34;;;;;;;19.88;17.92;;;;;;;22.03;56.70;100702.59;7398757;19;20074;-68
2023/06/20 00:08:03;;;;;;;18.48;16.77;;;;;;;22.00;57.39;100707.31;7399098;19;20018;-67
2023/06/20 00:10:31;;;;;;;18.05;16.40;;;;;;;21.96;57.02;100699.50;7399044;19;20014;-66
2023/06/20 00:13:02;;;;;;;18.98;17.25;;;;;;;21.92;57.56;100710.50;7396470;19;20015;-67
2023/06/20 00:15:31;;;;;;;18.70;16.90;;;;;;;21.89;57.74;100703.56;7397322;19;20018;-67
2023/06/20 00:18:01;;;;;;;19.55;17.50;;;;;;;21.86;57.57;100706.44;7398725;19;20090;-67
2023/06/20 00:20:30;;;;;;;18.52;16.63;;;;;;;21.80;58.02;100698.88;7399015;19;20014;-68
2023/06/20 00:23:02;;;;;;;19.08;17.23;;;;;;;21.76;57.80;100697.38;7395802;19;20017;-67
2023/06/20 00:25:31;;;;;;;19.02;16.55;;;;;;;21.71;58.19;100689.69;7396585;19;20086;-67
2023/06/20 00:28:02;;;;;;;18.23;16.38;;;;;;;21.67;57.93;100682.00;7398354;19;20014;-67
2023/06/20 00:30:30;;;;;;;18.27;16.48;;;;;;;21.65;58.01;100682.13;7396397;19;20019;-67
2023/06/20 00:33:00;;;;;;;18.42;16.63;;;;;;;21.63;58.48;100679.56;7397560;19;20015;-67
2023/06/20 00:35:28;;;;;;;18.38;16.77;;;;;;;21.61;58.60;100683.25;7395616;19;20387;-67
2023/06/20 00:37:57;;;;;;;18.98;16.98;;;;;;;21.58;58.37;100683.50;7397965;19;20082;-67
2023/06/20 00:40:25;;;;;;;18.80;16.83;;;;;;;21.54;58.68;100680.16;7397901;19;20014;-67
2023/06/20 00:42:53;;;;;;;18.88;17.17;;;;;;;21.53;58.87;100680.25;7397241;19;20504;-67
2023/06/20 00:45:33;;;;;;;18.77;16.98;;;;;;;21.51;58.69;100669.69;7397818;19;20029;-67
2023/06/20 00:48:03;;;;;;;18.42;16.63;;;;;;;21.50;58.83;100670.66;7397780;19;20022;-67
2023/06/20 00:50:33;;;;;;;18.88;17.17;;;;;;;21.50;58.91;100676.00;7397510;19;20018;-67
2023/06/20 00:53:04;;;;;;;18.65;16.45;;;;;;;21.48;58.86;100670.75;7396798;19;20090;-67
2023/06/20 00:55:34;;;;;;;18.50;16.75;;;;;;;21.47;59.38;100670.84;7396413;19;20031;-67
2023/06/20 00:58:05;;;;;;;19.88;18.02;;;;;;;21.46;59.26;100666.50;7397032;19;20022;-67
2023/06/20 01:00:38;;;;;;;17.88;16.17;;;;;;;21.46;59.45;100666.50;7397465;19;20021;-66
2023/06/20 01:03:09;;;;;;;18.73;16.85;;;;;;;21.44;58.83;100661.22;7397011;19;20038;-66
2023/06/20 01:05:38;;;;;;;19.73;17.58;;;;;;;21.44;59.11;100657.72;7397581;19;20023;-67
2023/06/20 01:08:16;;;;;;;18.55;16.85;;;;;;;21.42;59.03;100648.97;7397202;19;20019;-67
2023/06/20 01:11:00;;;;;;;18.30;16.58;;;;;;;21.43;59.07;100664.88;7397158;19;20405;-67
2023/06/20 01:13:44;;;;;;;20.77;16.73;;;;;;;21.42;59.53;100656.97;7396235;19;20021;-66
2023/06/20 01:16:21;;;;;;;19.10;17.30;;;;;;;21.40;59.54;100657.06;7394427;19;20363;-66
2023/06/20 01:19:03;;;;;;;18.83;17.02;;;;;;;21.39;59.19;100650.03;7397182;19;20078;-67
2023/06/20 01:21:37;;;;;;;19.10;17.30;;;;;;;21.40;59.25;100654.41;7396123;19;20347;-67
2023/06/20 01:24:13;;;;;;;19.67;17.65;;;;;;;21.40;59.72;100648.22;7394573;19;20361;-66
2023/06/20 01:26:51;;;;;;;18.90;17.20;;;;;;;21.42;59.67;100654.28;7396848;19;20066;-67
2023/06/20 01:29:32;;;;;;;18.98;17.10;;;;;;;21.42;59.99;100657.84;7396886;19;20025;-66
2023/06/20 01:32:04;;;;;;;20.38;18.33;;;;;;;21.43;59.92;100656.00;7394369;19;20380;-66
2023/06/20 01:34:35;;;;;;;19.23;17.42;;;;;;;21.43;59.99;100648.00;7394577;19;20018;-66
2023/06/20 01:37:06;;;;;;;19.17;17.38;;;;;;;21.42;59.88;100652.50;7395866;19;20074;-67
2023/06/20 01:39:44;;;;;;;19.17;17.13;;;;;;;21.42;60.37;100649.84;7396374;19;20029;-66
2023/06/20 01:42:14;;;;;;;18.85;17.08;;;;;;;21.40;59.85;100641.06;7396403;19;20010;-66
2023/06/20 01:44:44;;;;;;;21.48;18.05;;;;;;;21.40;59.91;100641.06;7394667;19;20014;-67
2023/06/20 01:47:16;;;;;;;18.77;17.00;;;;;;;21.39;60.17;100643.84;7395519;19;20490;-66
2023/06/20 01:49:46;;;;;;;20.15;18.30;;;;;;;21.36;60.40;100639.56;7396054;19;20015;-66
2023/06/20 01:52:17;;;;;;;20.20;18.13;;;;;;;21.36;60.60;100644.03;7395715;19;20019;-67
2023/06/20 01:54:50;;;;;;;23.10;18.30;;;;;;;21.35;60.64;100642.34;7394318;19;20018;-67
2023/06/20 01:57:20;;;;;;;19.67;17.38;;;;;;;21.33;60.96;100637.09;7393883;19;20481;-67
2023/06/20 01:59:49;;;;;;;25.60;18.73;;;;;;;21.31;60.74;100637.22;7393645;19;20018;-67
2023/06/20 02:02:19;;;;;;;20.98;18.90;;;;;;;21.29;61.03;100648.94;7395408;19;20014;-67
2023/06/20 02:04:50;;;;;;;20.10;18.20;;;;;;;21.25;61.18;100648.31;7394196;19;20018;-67
2023/06/20 02:07:20;;;;;;;21.45;19.33;;;;;;;21.23;60.97;100647.56;7395635;19;20018;-67
2023/06/20 02:09:52;;;;;;;21.15;19.00;;;;;;;21.20;60.91;100638.91;7395274;19;20078;-67
2023/06/20 02:12:21;;;;;;;20.38;18.45;;;;;;;21.18;61.37;100644.38;7394686;19;20486;-67
2023/06/20 02:14:52;;;;;;;21.33;19.13;;;;;;;21.17;61.06;100642.66;7393344;19;20090;-68
2023/06/20 02:17:21;;;;;;;20.05;18.15;;;;;;;21.17;61.41;100653.31;7394542;19;20388;-67
2023/06/20 02:19:50;;;;;;;21.75;19.50;;;;;;;21.16;61.25;100648.94;7393021;19;20018;-67
2023/06/20 02:22:21;;;;;;;21.45;19.38;;;;;;;21.15;61.49;100653.44;7392291;19;20010;-67
2023/06/20 02:24:54;;;;;;;22.00;19.80;;;;;;;21.15;61.53;100648.09;7393267;19;20019;-66
2023/06/20 02:27:24;;;;;;;21.77;19.77;;;;;;;21.15;62.04;100649.91;7395197;19;20024;-66
2023/06/20 02:29:54;;;;;;;22.02;19.80;;;;;;;21.13;61.94;100642.00;7394335;19;20405;-67
2023/06/20 02:32:23;;;;;;;23.15;20.92;;;;;;;21.12;61.58;100639.44;7394840;19;20077;-67
2023/06/20 02:34:53;;;;;;;21.95;19.92;;;;;;;21.09;61.92;100640.50;7392460;19;20024;-68
2023/06/20 02:37:32;;;;;;;22.30;20.20;;;;;;;21.10;62.27;100646.69;7394210;19;20015;-67
2023/06/20 02:40:04;;;;;;;23.63;21.42;;;;;;;21.06;62.35;100638.03;7392963;19;20011;-67
2023/06/20 02:42:33;;;;;;;24.20;21.75;;;;;;;21.06;62.23;100642.53;7392118;19;20011;-66
2023/06/20 02:45:02;;;;;;;23.58;21.27;;;;;;;21.04;62.08;100650.63;7391891;19;20018;-67
2023/06/20 02:47:38;;;;;;;24.25;21.90;;;;;;;21.04;62.23;100644.44;7394952;19;20022;-71
2023/06/20 02:50:12;;;;;;;23.83;21.00;;;;;;;21.04;62.70;100641.75;7393915;19;20538;-70
2023/06/20 02:52:48;;;;;;;24.65;22.08;;;;;;;21.03;62.46;100645.38;7392453;19;20024;-65
2023/06/20 02:55:29;;;;;;;24.13;21.83;;;;;;;21.01;62.65;100648.16;7392840;19;20491;-65
2023/06/20 02:58:02;;;;;;;22.60;20.52;;;;;;;21.01;62.44;100666.00;7394234;19;20098;-65
2023/06/20 03:00:32;;;;;;;21.27;19.17;;;;;;;20.99;63.09;100663.41;7394368;19;20018;-65
2023/06/20 03:03:08;;;;;;;22.80;20.55;;;;;;;20.96;62.95;100668.94;7392819;19;20033;-66
2023/06/20 03:05:42;;;;;;;21.67;19.48;;;;;;;20.94;63.39;100669.06;7394064;19;20042;-66
2023/06/20 03:08:11;;;;;;;23.40;21.10;;;;;;;20.94;63.73;100666.41;7391473;19;20025;-65
2023/06/20 03:10:50;;;;;;;22.90;20.70;;;;;;;20.93;63.66;100675.34;7392948;19;20460;-65
2023/06/20 03:13:18;;;;;;;22.33;20.23;;;;;;;20.92;63.85;100683.44;7398915;19;20095;-65
2023/06/20 03:15:49;;;;;;;22.38;20.13;;;;;;;20.89;63.92;100679.19;7398889;19;20082;-65
2023/06/20 03:18:18;;;;;;;23.90;21.60;;;;;;;20.89;63.86;100683.63;7400739;19;20022;-66
2023/06/20 03:20:48;;;;;;;24.25;21.85;;;;;;;20.86;64.45;100679.38;7400481;19;20078;-65
2023/06/20 03:23:17;;;;;;;23.52;21.38;;;;;;;20.85;64.25;100688.31;7398550;19;20027;-67
2023/06/20 03:25:48;;;;;;;23.20;21.00;;;;;;;20.83;64.61;100691.09;7400747;19;20018;-66
2023/06/20 03:28:23;;;;;;;22.67;20.42;;;;;;;20.81;64.47;100693.03;7400872;19;20038;-66
2023/06/20 03:30:51;;;;;;;24.20;21.80;;;;;;;20.80;64.43;100698.44;7397485;19;20413;-66
2023/06/20 03:33:20;;;;;;;25.52;23.23;;;;;;;20.78;64.67;100695.03;7397108;19;20494;-66
2023/06/20 03:35:50;;;;;;;24.33;22.00;;;;;;;20.77;64.80;100696.81;7398747;19;20035;-72
2023/06/20 03:38:42;;;;;;;25.23;22.55;;;;;;;20.74;64.68;100688.16;7399693;19;20044;-67
2023/06/20 03:41:13;;;;;;;24.45;22.13;;;;;;;20.75;64.61;100692.56;7400024;19;20018;-68
2023/06/20 03:43:42;;;;;;;24.88;22.42;;;;;;;20.74;64.91;100693.50;7396493;19;20022;-68
2023/06/20 03:46:10;;;;;;;25.25;22.85;;;;;;;20.72;65.06;100688.28;7399343;19;20090;-67
2023/06/20 03:48:39;;;;;;;25.48;22.92;;;;;;;20.71;65.06;100694.56;7399905;19;20035;-68
2023/06/20 03:51:07;;;;;;;26.48;23.88;;;;;;;20.70;64.78;100683.97;7399470;19;20019;-66
2023/06/20 03:53:36;;;;;;;26.10;23.60;;;;;;;20.68;65.08;100678.75;7398479;19;20022;-67
2023/06/20 03:56:05;;;;;;;26.13;23.63;;;;;;;20.67;65.06;100680.56;7397853;19;20540;-67
2023/06/20 03:58:36;;;;;;;27.70;25.08;;;;;;;20.67;65.09;100685.03;7396480;19;20014;-66
2023/06/20 04:01:06;;;;;;;27.88;25.15;;;;;;;20.65;65.07;100685.13;7398976;19;20523;-67
2023/06/20 04:03:35;;;;;;;27.90;25.30;;;;;;;20.65;65.38;100679.81;7398200;19;20018;-67
2023/06/20 04:06:03;;;;;;;28.63;25.48;;;;;;;20.65;64.88;100682.47;7398328;19;20034;-68
2023/06/20 04:08:33;;;;;;;27.92;24.98;;;;;;;20.66;65.11;100689.50;7396461;19;20039;-67
2023/06/20 04:11:01;;;;;;;28.48;25.77;;;;;;;20.67;65.23;100685.91;7398778;19;20066;-68
2023/06/20 04:13:30;;;;;;;28.55;25.90;;;;;;;20.65;65.49;100685.13;7397534;19;20031;-67
2023/06/20 04:16:01;;;;;;;29.40;26.65;;;;;;;20.69;65.27;100693.78;7397433;19;20018;-67
2023/06/20 04:18:30;;;;;;;28.45;25.73;;;;;;;20.70;65.52;100694.63;7398789;19;20347;-66
2023/06/20 04:21:02;;;;;;;29.40;26.52;;;;;;;20.68;65.58;100692.91;7395953;19;20023;-67
2023/06/20 04:23:37;;;;;;;30.00;27.00;;;;;;;20.70;65.58;100699.97;7394226;19;20011;-67
2023/06/20 04:26:06;;;;;;;35.30;31.80;;;;;;;20.72;65.28;100703.44;7397925;19;20372;-65
2023/06/20 04:28:34;;;;;;;36.13;32.35;;;;;;;20.73;65.33;100699.81;7398110;19;20011;-68
2023/06/20 04:31:06;;;;;;;31.75;28.58;;;;;;;20.76;65.66;100694.25;7398062;19;20031;-67
2023/06/20 04:33:34;;;;;;;31.40;28.23;;;;;;;20.79;65.57;100702.09;7397746;19;20026;-68
2023/06/20 04:36:02;;;;;;;32.67;29.52;;;;;;;20.82;65.26;100696.53;7396613;19;20506;-68
2023/06/20 04:38:31;;;;;;;31.15;27.95;;;;;;;20.84;65.33;100697.31;7397011;19;20019;-67
2023/06/20 04:41:01;;;;;;;31.30;28.25;;;;;;;20.89;65.58;100708.50;7396617;19;20047;-68
2023/06/20 04:43:30;;;;;;;32.08;28.70;;;;;;;20.92;65.22;100713.63;7395467;19;20386;-66
2023/06/20 04:45:59;;;;;;;31.10;28.00;;;;;;;20.95;65.44;100726.78;7397873;19;20027;-67
2023/06/20 04:48:35;;;;;;;32.08;29.10;;;;;;;20.98;65.30;100720.38;7397672;19;20033;-67
2023/06/20 04:51:08;;;;;;;31.52;28.45;;;;;;;20.98;65.22;100729.22;7398222;19;20011;-67
2023/06/20 04:53:36;;;;;;;32.95;29.70;;;;;;;20.99;65.32;100725.63;7395453;19;20499;-67
2023/06/20 04:56:06;;;;;;;30.67;27.80;;;;;;;21.01;65.60;100738.00;7395862;19;20019;-67
2023/06/20 04:58:34;;;;;;;32.33;29.17;;;;;;;21.04;64.97;100729.78;7395682;19;20039;-68
2023/06/20 05:01:03;;;;;;;39.08;34.97;;;;;;;21.05;65.13;100726.16;7394661;19;20477;-68
2023/06/20 05:03:34;;;;;;;33.17;30.05;;;;;;;21.06;65.20;100727.88;7395837;19;20019;-67
2023/06/20 05:06:03;;;;;;;33.35;30.13;;;;;;;21.05;65.07;100718.16;7395956;19;20441;-67
2023/06/20 05:08:31;;;;;;;32.40;29.30;;;;;;;21.07;64.97;100722.44;7394712;19;20022;-67
2023/06/20 05:11:00;;;;;;;34.13;30.70;;;;;;;21.07;64.87;100722.44;7396091;19;20018;-67
2023/06/20 05:13:28;;;;;;;34.28;31.08;;;;;;;21.09;64.95;100712.53;7394510;19;20039;-67
2023/06/20 05:15:56;;;;;;;34.17;30.88;;;;;;;21.11;64.66;100718.59;7394692;19;20106;-67
2023/06/20 05:18:25;;;;;;;34.33;30.92;;;;;;;21.09;64.21;100717.00;7395520;19;20011;-67
2023/06/20 05:20:56;;;;;;;37.05;33.38;;;;;;;21.06;64.65;100719.88;7395043;19;20019;-68
2023/06/20 05:23:34;;;;;;;33.83;30.50;;;;;;;21.05;64.50;100721.66;7393129;19;20485;-67
2023/06/20 05:26:04;;;;;;;33.88;30.67;;;;;;;21.08;64.85;100724.16;7395102;19;20517;-67
2023/06/20 05:28:32;;;;;;;35.20;31.65;;;;;;;21.12;64.22;100727.47;7395375;19;20470;-67
2023/06/20 05:31:01;;;;;;;35.42;32.03;;;;;;;21.16;64.09;100734.31;7394374;19;20014;-67
2023/06/20 05:33:29;;;;;;;37.88;34.13;;;;;;;21.19;64.15;100728.75;7394309;19;20043;-67
2023/06/20 05:36:00;;;;;;;34.95;31.67;;;;;;;21.24;64.46;100731.97;7394282;19;20022;-67
2023/06/20 05:38:31;;;;;;;36.83;33.30;;;;;;;21.25;64.44;100728.34;7396047;19;20021;-70
2023/06/20 05:40:59;;;;;;;36.38;32.92;;;;;;;21.28;64.38;100729.94;7395493;19;20025;-67
2023/06/20 05:43:28;;;;;;;37.42;33.92;;;;;;;21.31;64.26;100733.28;7394577;19;20026;-67
2023/06/20 05:45:56;;;;;;;38.13;34.50;;;;;;;21.33;64.12;100735.81;7395286;19;20018;-67
2023/06/20 05:48:25;;;;;;;38.95;35.08;;;;;;;21.36;64.14;100742.78;7393356;19;20494;-67
2023/06/20 05:50:54;;;;;;;38.45;34.92;;;;;;;21.39;64.67;100754.09;7393486;19;20021;-66
2023/06/20 05:53:25;;;;;;;38.47;34.78;;;;;;;21.40;64.25;100744.28;7394009;19;20026;-67
2023/06/20 05:55:53;;;;;;;39.40;35.45;;;;;;;21.48;64.57;100752.63;7395558;19;20032;-67
2023/06/20 05:58:22;;;;;;;36.92;33.30;;;;;;;21.48;64.31;100757.97;7395317;19;20022;-66
2023/06/20 06:00:51;;;;;;;38.90;35.00;;;;;;;21.52;64.04;100748.81;7393312;19;20007;-67
2023/06/20 06:03:19;;;;;;;36.60;32.88;;;;;;;21.54;63.79;100749.53;7394225;19;20015;-67
2023/06/20 06:05:48;;;;;;;37.95;34.25;;;;;;;21.56;63.92;100752.13;7394825;19;20033;-66
2023/06/20 06:08:16;;;;;;;38.33;34.55;;;;;;;21.57;64.45;100754.72;7395131;19;20368;-67
2023/06/20 06:10:47;;;;;;;36.08;32.45;;;;;;;21.58;64.34;100756.41;7393465;19;20022;-67
2023/06/20 06:13:16;;;;;;;38.10;34.45;;;;;;;21.60;64.49;100745.66;7393021;19;20026;-67
2023/06/20 06:15:44;;;;;;;37.85;34.25;;;;;;;21.59;64.30;100750.13;7392829;19;20423;-67
2023/06/20 06:18:13;;;;;;;37.63;33.92;;;;;;;21.59;64.97;100741.25;7394361;19;20015;-67
2023/06/20 06:20:43;;;;;;;37.17;33.67;;;;;;;21.60;65.12;100741.16;7394726;19;20014;-68
2023/06/20 06:23:12;;;;;;;38.45;34.80;;;;;;;21.63;64.68;100738.28;7393541;19;20027;-67
2023/06/20 06:25:40;;;;;;;37.80;34.17;;;;;;;21.66;64.93;100739.03;7394426;19;20019;-67
2023/06/20 06:28:11;;;;;;;39.47;35.67;;;;;;;21.67;64.74;100744.25;7393637;19;20506;-68
2023/06/20 06:30:40;;;;;;;38.88;35.10;;;;;;;21.72;64.92;100746.63;7393805;19;20364;-67
2023/06/20 06:33:09;;;;;;;39.47;35.75;;;;;;;21.80;64.63;100746.94;7393585;19;20022;-67
2023/06/20 06:35:38;;;;;;;39.50;35.42;;;;;;;21.84;64.46;100740.44;7392088;19;20021;-67
2023/06/20 06:38:08;;;;;;;40.53;36.72;;;;;;;21.89;64.61;100737.44;7393797;19;20010;-68
2023/06/20 06:40:36;;;;;;;41.33;37.28;;;;;;;21.95;64.25;100734.31;7393638;19;20121;-67
2023/06/20 06:43:05;;;;;;;41.92;37.83;;;;;;;22.01;64.21;100738.41;7393255;19;20015;-67
2023/06/20 06:45:36;;;;;;;41.15;37.22;;;;;;;22.05;63.99;100734.53;7394049;19;20078;-67
2023/06/20 06:48:04;;;;;;;42.90;38.55;;;;;;;22.08;63.62;100737.84;7400091;19;20018;-68
2023/06/20 06:50:33;;;;;;;42.30;38.15;;;;;;;22.13;63.14;100740.22;7401115;19;20031;-68
2023/06/20 06:53:01;;;;;;;41.65;37.20;;;;;;;22.19;62.96;100739.78;7400688;19;20043;-68
2023/06/20 06:55:30;;;;;;;41.03;37.10;;;;;;;22.25;62.96;100733.97;7400949;19;20032;-68
2023/06/20 06:57:58;;;;;;;43.17;37.42;;;;;;;22.35;62.79;100752.03;7398343;19;20078;-68
2023/06/20 07:00:27;;;;;;;37.42;33.72;;;;;;;22.43;62.57;100747.03;7398736;19;20031;-68
2023/06/20 07:02:58;;;;;;;41.22;37.15;;;;;;;22.51;61.96;100747.34;7397694;19;20542;-68
2023/06/20 07:05:26;;;;;;;41.40;37.17;;;;;;;22.60;61.58;100749.31;7401318;19;20015;-68
2023/06/20 07:07:55;;;;;;;40.97;37.08;;;;;;;22.70;61.25;100748.69;7397570;19;20018;-68
2023/06/20 07:10:23;;;;;;;40.88;36.97;;;;;;;22.80;61.23;100760.41;7400362;19;20022;-68
2023/06/20 07:12:52;;;;;;;41.80;37.72;;;;;;;22.85;61.24;100754.69;7400526;19;20018;-68
2023/06/20 07:15:20;;;;;;;41.83;37.42;;;;;;;22.93;60.82;100763.88;7400010;19;20477;-68
2023/06/20 07:17:49;;;;;;;41.83;37.50;;;;;;;22.97;61.28;100756.47;7398081;19;20022;-67
2023/06/20 07:20:20;;;;;;;40.75;36.83;;;;;;;23.01;60.65;100751.75;7397781;19;20027;-67
2023/06/20 07:22:48;;;;;;;39.55;35.80;;;;;;;23.04;60.73;100749.72;7398641;19;20486;-68
2023/06/20 07:25:19;;;;;;;41.00;36.83;;;;;;;23.07;60.75;100749.47;7400559;19;20022;-68
2023/06/20 07:27:47;;;;;;;41.45;37.38;;;;;;;23.11;60.17;100747.44;7398057;19;20076;-68
2023/06/20 07:30:16;;;;;;;41.65;37.65;;;;;;;23.15;60.57;100759.66;7399652;19;20019;-68
2023/06/20 07:32:44;;;;;;;39.55;35.95;;;;;;;23.19;60.27;100760.25;7399265;19;20482;-68
2023/06/20 07:35:13;;;;;;;39.97;36.08;;;;;;;23.19;60.13;100761.13;7398757;19;20010;-68
2023/06/20 07:37:45;;;;;;;40.40;36.58;;;;;;;23.21;60.12;100758.34;7396702;19;20026;-69
2023/06/20 07:40:14;;;;;;;40.15;36.53;;;;;;;23.22;59.93;100758.22;7399317;19;20031;-69
2023/06/20 07:42:43;;;;;;;40.55;36.75;;;;;;;23.24;60.46;100756.28;7398780;19;20018;-67
2023/06/20 07:45:12;;;;;;;39.72;35.92;;;;;;;23.24;60.46;100756.28;7396315;19;20447;-68
2023/06/20 07:47:40;;;;;;;40.65;36.75;;;;;;;23.26;59.98;100759.69;7398606;19;20014;-68
2023/06/20 07:50:10;;;;;;;40.20;36.08;;;;;;;23.29;60.21;100763.09;7398243;19;20485;-68
2023/06/20 07:52:40;;;;;;;40.58;36.88;;;;;;;23.29;60.45;100766.66;7400591;19;20027;-70
2023/06/20 07:55:11;;;;;;;40.35;36.28;;;;;;;23.30;60.42;100775.53;7400914;19;20038;-68
2023/06/20 07:57:40;;;;;;;38.92;35.33;;;;;;;23.27;60.54;100780.13;7398064;19;20019;-68
2023/06/20 08:00:11;;;;;;;39.33;35.53;;;;;;;23.25;60.65;100784.75;7396723;19;20014;-69
2023/06/20 08:02:40;;;;;;;39.28;35.58;;;;;;;23.20;60.72;100791.41;7398232;19;20490;-69
2023/06/20 08:05:09;;;;;;;38.35;34.72;;;;;;;23.15;60.55;100797.13;7395977;19;20014;-68
2023/06/20 08:07:38;;;;;;;38.88;35.15;;;;;;;23.12;61.26;100813.34;7398452;19;20025;-69
2023/06/20 08:10:10;;;;;;;38.33;34.42;;;;;;;23.05;60.83;100812.97;7398319;19;20014;-69
2023/06/20 08:12:41;;;;;;;36.75;33.33;;;;;;;22.98;61.55;100819.72;7396852;19;20023;-69
2023/06/20 08:15:10;;;;;;;39.28;35.10;;;;;;;22.92;61.70;100834.41;7398149;19;20380;-69
2023/06/20 08:17:39;;;;;;;37.30;33.53;;;;;;;22.85;61.90;100848.31;7396904;19;20018;-68
2023/06/20 08:20:09;;;;;;;35.90;32.15;;;;;;;22.76;62.30;100898.84;7397619;19;20478;-69
2023/06/20 08:22:38;;;;;;;34.22;31.10;;;;;;;22.66;62.39;100902.25;7395261;19;20358;-68
2023/06/20 08:25:07;;;;;;;33.95;30.77;;;;;;;22.54;62.92;100867.41;7398127;19;20375;-69
2023/06/20 08:27:36;;;;;;;30.80;27.90;;;;;;;22.42;63.53;100881.66;7397840;19;20014;-68
2023/06/20 08:30:09;;;;;;;30.27;27.23;;;;;;;22.29;64.95;100889.59;7397456;19;20498;-68
2023/06/20 08:32:41;;;;;;;30.25;27.20;;;;;;;22.21;65.23;100850.06;7396623;19;20022;-68
2023/06/20 08:35:10;;;;;;;29.58;26.80;;;;;;;22.10;66.03;100888.22;7395515;19;20330;-68
2023/06/20 08:37:40;;;;;;;30.17;27.30;;;;;;;22.03;66.62;100891.41;7395536;19;20041;-68
2023/06/20 08:40:13;;;;;;;30.67;27.83;;;;;;;21.95;67.53;100887.44;7395509;19;20022;-68
2023/06/20 08:42:43;;;;;;;31.08;27.92;;;;;;;21.84;69.65;100907.78;7397011;19;20010;-68
2023/06/20 08:45:20;;;;;;;32.65;29.45;;;;;;;21.67;71.05;100879.56;7395485;19;20018;-69
2023/06/20 08:47:49;;;;;;;33.03;29.83;;;;;;;21.41;71.60;100876.78;7397598;19;20070;-68
2023/06/20 08:50:17;;;;;;;33.22;30.02;;;;;;;21.20;72.94;100887.03;7397264;19;20015;-70
2023/06/20 08:52:49;;;;;;;33.30;29.80;;;;;;;20.99;74.50;100885.63;7396269;19;20549;-68
2023/06/20 08:55:18;;;;;;;33.50;30.45;;;;;;;20.80;75.03;100883.28;7397033;19;20351;-67
2023/06/20 08:57:48;;;;;;;35.70;32.03;;;;;;;20.63;75.91;100868.28;7394975;19;20027;-68
2023/06/20 09:00:22;;;;;;;35.35;31.83;;;;;;;20.48;76.46;100883.41;7395582;19;20034;-68
2023/06/20 09:02:51;;;;;;;37.47;33.67;;;;;;;20.35;77.08;100877.97;7396443;19;20074;-69
2023/06/20 09:05:20;;;;;;;36.35;32.90;;;;;;;20.28;77.76;100879.31;7395515;19;20078;-69
2023/06/20 09:07:49;;;;;;;36.55;32.67;;;;;;;20.22;78.52;100870.81;7396488;19;20432;-68
2023/06/20 09:10:21;;;;;;;37.63;34.00;;;;;;;20.15;78.64;100870.34;7395580;19;20086;-68
2023/06/20 09:12:51;;;;;;;39.30;35.45;;;;;;;20.10;79.32;100869.75;7395971;19;20014;-68
2023/06/20 09:15:24;;;;;;;39.25;35.45;;;;;;;20.01;80.33;100869.34;7396694;19;20427;-66
2023/06/20 09:17:54;;;;;;;39.90;36.10;;;;;;;19.90;81.14;100879.78;7394007;19;20371;-67
2023/06/20 09:20:26;;;;;;;40.25;36.45;;;;;;;19.80;82.05;100881.25;7396038;19;20019;-68
2023/06/20 09:22:55;;;;;;;40.10;35.88;;;;;;;19.69;82.29;100889.88;7395058;19;20014;-67
2023/06/20 09:25:25;;;;;;;39.90;35.95;;;;;;;19.62;82.98;100892.00;7394194;19;20010;-68
2023/06/20 09:27:54;;;;;;;41.80;37.63;;;;;;;19.59;83.78;100894.84;7395552;19;20383;-68
2023/06/20 09:30:25;;;;;;;42.72;38.10;;;;;;;19.55;84.05;100898.63;7395957;19;20077;-68
2023/06/20 09:32:54;;;;;;;41.90;37.40;;;;;;;19.50;84.80;100898.91;7394642;19;20027;-68
2023/06/20 09:35:23;;;;;;;39.70;35.70;;;;;;;19.46;85.17;100893.81;7394598;19;20018;-67
2023/06/20 09:37:54;;;;;;;43.45;38.72;;;;;;;19.41;85.61;100895.88;7393942;19;20022;-68
2023/06/20 09:40:23;;;;;;;41.72;37.38;;;;;;;19.38;85.56;100902.25;7393054;19;20039;-68
2023/06/20 09:42:59;;;;;;;41.92;37.78;;;;;;;19.34;86.14;100914.00;7393398;19;20107;-69
2023/06/20 09:45:30;;;;;;;41.63;37.47;;;;;;;19.29;86.45;100911.59;7395563;19;20018;-68
2023/06/20 09:48:01;;;;;;;43.65;39.25;;;;;;;19.25;86.51;100915.38;7395461;19;20027;-70
2023/06/20 09:50:31;;;;;;;42.78;38.53;;;;;;;19.27;87.11;100917.94;7395559;19;20023;-68
2023/06/20 09:53:05;;;;;;;43.33;39.03;;;;;;;19.25;87.70;100911.88;7392810;19;20478;-71
2023/06/20 09:55:36;;;;;;;43.42;39.00;;;;;;;19.23;87.88;100911.94;7393136;19;20015;-70
2023/06/20 09:58:06;;;;;;;43.95;39.40;;;;;;;19.21;87.94;100895.22;7395356;19;20037;-71
2023/06/20 10:00:38;;;;;;;45.70;41.05;;;;;;;19.19;88.57;100892.63;7395193;19;20040;-68
2023/06/20 10:03:14;;;;;;;45.40;40.58;;;;;;;19.22;88.75;100888.94;7394553;19;20077;-68
2023/06/20 10:05:44;;;;;;;44.92;40.22;;;;;;;19.24;88.42;100880.91;7392387;19;20015;-70
2023/06/20 10:08:13;;;;;;;47.80;42.70;;;;;;;19.26;89.47;100878.97;7392640;19;20485;-68
2023/06/20 10:10:41;;;;;;;46.78;41.85;;;;;;;19.30;89.50;100880.56;7392629;19;20530;-69
2023/06/20 10:13:11;;;;;;;44.42;39.80;;;;;;;19.34;90.27;100890.91;7394146;19;20525;-68
2023/06/20 10:15:42;;;;;;;43.20;39.10;;;;;;;19.37;89.71;100879.25;7394117;19;20014;-68
2023/06/20 10:18:21;;;;;;;42.72;38.42;;;;;;;19.37;89.71;100876.56;7392694;19;20078;-67
2023/06/20 10:20:50;;;;;;;44.85;40.10;;;;;;;19.39;89.78;100881.84;7392131;19;20025;-68
2023/06/20 10:23:20;;;;;;;45.53;40.72;;;;;;;19.41;89.88;100877.25;7396625;19;20414;-68
2023/06/20 10:25:56;;;;;;;44.88;40.35;;;;;;;19.47;89.72;100871.59;7403051;19;20485;-68
2023/06/20 10:28:24;;;;;;;47.88;42.78;;;;;;;19.54;89.85;100871.16;7398610;19;20014;-68
2023/06/20 10:31:05;;;;;;;48.13;43.13;;;;;;;19.64;90.59;100875.97;7399983;19;20368;-67
2023/06/20 10:33:35;;;;;;;44.97;37.67;;;;;;;19.72;90.31;100867.53;7399841;19;20035;-68
2023/06/20 10:36:05;;;;;;;38.47;34.60;;;;;;;19.78;90.00;100861.84;7401167;19;20019;-68
2023/06/20 10:38:37;;;;;;;40.80;36.72;;;;;;;19.82;89.22;100848.28;7397891;19;20431;-68
2023/06/20 10:41:10;;;;;;;44.05;39.85;;;;;;;19.90;89.83;100846.97;7401368;19;20032;-68
2023/06/20 10:43:53;;;;;;;43.22;38.85;;;;;;;19.97;89.48;100843.03;7400382;19;20022;-68
2023/06/20 10:46:30;;;;;;;44.40;39.70;;;;;;;20.02;89.94;100847.09;7401712;19;20039;-70
2023/06/20 10:48:58;;;;;;;39.80;35.83;;;;;;;20.11;89.46;100831.53;7398505;19;20027;-68
2023/06/20 10:51:29;;;;;;;41.63;37.17;;;;;;;20.17;89.14;100823.19;7400632;19;20014;-68
2023/06/20 10:54:10;;;;;;;40.50;36.72;;;;;;;20.22;89.64;100823.75;7398110;19;20034;-69
2023/06/20 10:56:39;;;;;;;39.28;35.38;;;;;;;20.25;89.31;100810.22;7397459;19;20027;-69
2023/06/20 10:59:11;;;;;;;40.95;36.75;;;;;;;20.29;89.17;100814.41;7398112;19;20027;-69
2023/06/20 11:01:43;;;;;;;39.83;35.83;;;;;;;20.33;89.48;100820.41;7400992;19;20021;-68
2023/06/20 11:04:13;;;;;;;39.97;35.88;;;;;;;20.37;88.98;100819.25;7398049;19;20359;-69
2023/06/20 11:06:49;;;;;;;38.83;35.05;;;;;;;20.41;89.01;100819.94;7400148;19;20018;-68
2023/06/20 11:09:22;;;;;;;38.30;34.55;;;;;;;20.46;88.92;100821.38;7400380;19;20447;-68
2023/06/20 11:11:51;;;;;;;38.90;34.95;;;;;;;20.52;88.80;100822.78;7399522;19;20371;-68
2023/06/20 11:14:21;;;;;;;38.83;34.90;;;;;;;20.56;88.88;100811.00;7397598;19;20078;-69
2023/06/20 11:16:54;;;;;;;38.55;34.72;;;;;;;20.59;88.66;100812.63;7400177;19;20035;-68
2023/06/20 11:19:23;;;;;;;40.63;36.45;;;;;;;20.61;89.04;100814.22;7396822;19;20078;-70
2023/06/20 11:21:53;;;;;;;38.55;34.72;;;;;;;20.65;88.63;100807.75;7399171;19;20032;-68
2023/06/20 11:24:22;;;;;;;37.22;33.58;;;;;;;20.72;88.73;100812.72;7397134;19;20062;-70